Time;durP1;ratioP1;P1;durP2;ratioP2;P2;SDS_P1;SDS_P2;PMS_P1;PMS_P2;Temp;Humidity;BMP_temperature;BMP_pressure;BME280_temperature;BME280_humidity;BME280_pressure;Samples;Min_cycle;Max_cycle;Signal;HPM_P1;HPM_P2
2024/03/31 00:00:18;;;;;;;145.27;84.93;;;10.50;99.90;;;;;;5012979;28;20026;-71
2024/03/31 00:02:44;;;;;;;151.35;88.15;;;10.50;99.90;;;;;;5013177;28;20133;-72
2024/03/31 00:05:09;;;;;;;154.05;91.18;;;10.50;99.90;;;;;;5013624;28;20030;-72
2024/03/31 00:07:36;;;;;;;156.40;88.00;;;10.50;99.90;;;;;;5013240;28;20038;-72
2024/03/31 00:10:03;;;;;;;153.93;86.18;;;10.40;99.90;;;;;;5013678;28;20044;-73
2024/03/31 00:12:29;;;;;;;156.07;91.25;;;10.40;99.90;;;;;;5017106;28;20045;-73
2024/03/31 00:14:55;;;;;;;157.40;92.22;;;10.40;99.90;;;;;;5017955;28;20067;-73
2024/03/31 00:17:20;;;;;;;154.23;89.15;;;10.30;99.90;;;;;;5016750;28;20093;-73
2024/03/31 00:19:46;;;;;;;154.45;90.72;;;10.30;99.90;;;;;;5016181;28;20126;-73
2024/03/31 00:22:12;;;;;;;160.07;94.85;;;10.20;99.90;;;;;;5016573;28;20119;-72
2024/03/31 00:24:37;;;;;;;158.50;94.07;;;10.20;99.90;;;;;;5016436;28;20046;-73
2024/03/31 00:27:04;;;;;;;160.15;94.93;;;10.20;99.90;;;;;;5016856;28;20044;-72
2024/03/31 00:29:29;;;;;;;165.70;99.78;;;10.20;99.90;;;;;;5016438;28;20101;-72
2024/03/31 00:31:55;;;;;;;173.50;104.25;;;10.20;99.90;;;;;;5014460;28;20121;-72
2024/03/31 00:34:24;;;;;;;175.95;102.38;;;10.20;99.90;;;;;;5016123;28;20057;-73
2024/03/31 00:36:49;;;;;;;180.05;106.47;;;10.20;99.90;;;;;;5016381;28;20141;-73
2024/03/31 00:39:15;;;;;;;176.68;107.00;;;10.10;99.90;;;;;;5014940;28;20506;-73
2024/03/31 00:41:41;;;;;;;180.05;107.72;;;10.10;99.90;;;;;;5016736;28;20034;-72
2024/03/31 00:44:07;;;;;;;198.25;112.30;;;10.10;99.90;;;;;;5016434;28;20045;-71
2024/03/31 00:46:32;;;;;;;190.40;113.88;;;10.10;99.90;;;;;;5014625;28;20044;-72
2024/03/31 00:48:58;;;;;;;194.93;118.10;;;10.00;99.90;;;;;;5017301;28;20041;-72
2024/03/31 00:51:24;;;;;;;205.00;121.43;;;10.00;99.90;;;;;;5015996;28;20037;-73
2024/03/31 00:53:49;;;;;;;204.15;123.13;;;10.00;99.90;;;;;;5016712;28;20022;-72
2024/03/31 00:56:15;;;;;;;212.90;127.85;;;9.90;99.90;;;;;;5016188;28;20561;-72
2024/03/31 00:58:41;;;;;;;220.93;131.43;;;9.90;99.90;;;;;;5016704;28;20632;-73
2024/03/31 01:01:08;;;;;;;238.30;141.10;;;9.80;99.90;;;;;;5016691;28;20399;-73
2024/03/31 01:03:33;;;;;;;235.52;136.40;;;9.80;99.90;;;;;;5016133;28;20053;-72
2024/03/31 01:06:07;;;;;;;242.90;140.23;;;9.80;99.90;;;;;;5014034;28;20038;-72
2024/03/31 01:08:32;;;;;;;237.73;138.80;;;9.80;99.90;;;;;;5016349;28;20022;-72
2024/03/31 01:10:58;;;;;;;228.80;136.27;;;9.80;99.90;;;;;;5015663;28;20038;-72
2024/03/31 01:13:24;;;;;;;235.60;138.75;;;9.70;99.90;;;;;;5014975;28;20045;-72
2024/03/31 01:15:50;;;;;;;232.80;137.30;;;9.70;99.90;;;;;;5015844;28;20033;-72
2024/03/31 01:18:15;;;;;;;229.15;137.23;;;9.70;99.90;;;;;;5014788;28;20037;-73
2024/03/31 01:20:41;;;;;;;224.70;132.85;;;9.70;99.90;;;;;;5015364;28;20061;-72
2024/03/31 01:23:10;;;;;;;219.05;126.68;;;9.60;99.90;;;;;;5014761;28;20053;-73
2024/03/31 01:25:36;;;;;;;214.00;124.20;;;9.60;99.90;;;;;;5015808;28;20057;-73
2024/03/31 01:28:03;;;;;;;210.88;123.88;;;9.50;99.90;;;;;;5015830;28;20046;-73
2024/03/31 01:30:28;;;;;;;204.75;119.60;;;9.50;99.90;;;;;;5015820;28;20448;-72
2024/03/31 01:32:56;;;;;;;211.18;122.10;;;9.60;99.90;;;;;;5015637;28;20030;-72
2024/03/31 01:35:22;;;;;;;203.43;118.18;;;9.60;99.90;;;;;;5028699;28;20026;-73
2024/03/31 01:37:51;;;;;;;212.88;119.30;;;9.60;99.90;;;;;;5015781;28;20468;-73
2024/03/31 01:40:17;;;;;;;205.40;116.40;;;9.70;99.90;;;;;;5015022;28;20065;-72
2024/03/31 01:42:47;;;;;;;202.55;114.20;;;9.70;99.90;;;;;;5028700;28;20037;-72
2024/03/31 01:45:19;;;;;;;192.55;105.07;;;9.70;99.90;;;;;;5015568;28;20026;-72
2024/03/31 01:47:44;;;;;;;184.20;101.13;;;9.70;99.90;;;;;;5014635;28;21298;-72
2024/03/31 01:50:10;;;;;;;177.38;95.85;;;9.70;99.90;;;;;;5015180;28;20045;-71
2024/03/31 01:52:35;;;;;;;164.02;86.53;;;9.60;99.90;;;;;;5013471;28;20093;-72
2024/03/31 01:55:01;;;;;;;154.55;83.53;;;9.60;99.90;;;;;;5014817;28;20065;-73
2024/03/31 01:57:27;;;;;;;137.73;77.47;;;9.70;99.90;;;;;;5013138;28;20029;-73
2024/03/31 01:59:52;;;;;;;134.93;73.90;;;9.70;99.90;;;;;;5014294;28;20064;-72
2024/03/31 02:02:18;;;;;;;124.45;68.35;;;9.70;99.90;;;;;;5014749;28;20069;-72
2024/03/31 02:04:44;;;;;;;114.03;61.25;;;9.70;99.90;;;;;;5015068;28;20252;-72
2024/03/31 02:07:09;;;;;;;97.25;52.42;;;9.70;99.90;;;;;;5014793;28;20042;-72
2024/03/31 02:09:35;;;;;;;90.78;50.30;;;9.70;99.90;;;;;;5015199;28;20445;-73
2024/03/31 02:12:01;;;;;;;90.05;49.60;;;9.70;99.90;;;;;;5015145;28;20030;-71
2024/03/31 02:14:27;;;;;;;96.80;51.00;;;9.70;99.90;;;;;;5014195;28;20046;-72
2024/03/31 02:16:54;;;;;;;89.68;49.75;;;9.70;99.90;;;;;;5015645;28;20042;-71
2024/03/31 02:19:20;;;;;;;86.88;50.35;;;9.70;99.90;;;;;;5014248;28;20018;-72
2024/03/31 02:21:46;;;;;;;91.75;49.33;;;9.60;99.90;;;;;;5013801;28;20026;-72
2024/03/31 02:24:11;;;;;;;83.07;47.00;;;9.60;99.90;;;;;;5012984;28;20081;-72
2024/03/31 02:26:37;;;;;;;88.47;47.53;;;9.60;99.90;;;;;;5014912;28;20042;-72
2024/03/31 02:29:06;;;;;;;84.57;47.22;;;9.60;99.90;;;;;;5014738;28;20037;-72
2024/03/31 02:31:31;;;;;;;76.32;45.05;;;9.70;99.90;;;;;;5014642;28;20046;-72
2024/03/31 02:33:57;;;;;;;77.40;44.60;;;9.70;99.90;;;;;;5013996;28;20029;-72
2024/03/31 02:36:22;;;;;;;77.90;44.72;;;9.70;99.90;;;;;;5012466;28;20033;-72
2024/03/31 02:38:48;;;;;;;78.53;45.13;;;9.70;99.90;;;;;;5014814;28;20090;-71
2024/03/31 02:41:13;;;;;;;74.75;43.80;;;9.70;99.90;;;;;;5014640;28;20494;-71
2024/03/31 02:43:39;;;;;;;72.65;40.63;;;9.80;99.90;;;;;;5014175;28;20034;-72
2024/03/31 02:46:04;;;;;;;57.60;34.28;;;9.80;99.90;;;;;;5014086;28;20480;-71
2024/03/31 02:48:30;;;;;;;54.70;32.58;;;9.70;99.90;;;;;;5013928;28;20514;-70
2024/03/31 02:50:55;;;;;;;49.63;28.92;;;9.70;99.90;;;;;;5014737;28;20029;-71
2024/03/31 02:53:21;;;;;;;46.65;27.05;;;9.70;99.90;;;;;;5013387;28;20509;-72
2024/03/31 02:55:47;;;;;;;44.85;28.00;;;9.70;99.90;;;;;;5013896;28;20026;-71
2024/03/31 02:58:12;;;;;;;41.28;25.52;;;9.70;99.90;;;;;;5014165;28;20086;-71
2024/03/31 03:00:38;;;;;;;43.65;26.25;;;9.80;99.90;;;;;;5013783;28;20517;-72
2024/03/31 03:03:04;;;;;;;32.80;20.17;;;9.80;99.90;;;;;;5013340;28;20102;-72
2024/03/31 03:05:29;;;;;;;28.95;17.90;;;9.80;99.90;;;;;;5012174;28;20515;-71
2024/03/31 03:07:55;;;;;;;27.63;16.25;;;9.80;99.90;;;;;;5013571;28;20460;-71
2024/03/31 03:10:20;;;;;;;24.55;15.00;;;9.80;99.90;;;;;;5013405;28;20030;-71
2024/03/31 03:12:47;;;;;;;20.85;13.80;;;9.80;99.90;;;;;;5013710;28;20042;-71
2024/03/31 03:15:12;;;;;;;21.58;13.40;;;9.80;99.90;;;;;;5012489;28;20037;-71
2024/03/31 03:17:39;;;;;;;20.15;12.57;;;9.80;99.90;;;;;;5013675;28;20033;-71
2024/03/31 03:20:05;;;;;;;18.05;12.15;;;9.80;99.90;;;;;;5013370;28;20077;-72
2024/03/31 03:22:34;;;;;;;18.95;11.50;;;9.80;99.90;;;;;;5013678;28;20042;-72
2024/03/31 03:24:59;;;;;;;17.85;11.70;;;9.80;99.90;;;;;;5013432;28;20397;-71
2024/03/31 03:27:25;;;;;;;19.42;11.48;;;9.80;99.90;;;;;;5013629;28;20049;-72
2024/03/31 03:29:53;;;;;;;18.25;11.32;;;9.80;99.90;;;;;;5012735;28;20544;-70
2024/03/31 03:32:19;;;;;;;18.17;11.45;;;9.70;99.90;;;;;;5013040;28;20065;-71
2024/03/31 03:34:45;;;;;;;15.68;10.43;;;9.70;99.90;;;;;;5014221;28;20038;-72
2024/03/31 03:37:10;;;;;;;18.02;11.23;;;9.60;99.90;;;;;;5012629;28;20034;-71
2024/03/31 03:39:36;;;;;;;20.00;12.30;;;9.60;99.90;;;;;;5013265;28;20097;-71
2024/03/31 03:42:03;;;;;;;21.67;12.10;;;9.70;99.90;;;;;;5013072;28;20033;-72
2024/03/31 03:44:28;;;;;;;19.40;12.05;;;9.50;99.90;;;;;;5012246;28;20058;-71
2024/03/31 03:46:54;;;;;;;23.08;11.80;;;9.50;99.90;;;;;;5013224;28;20343;-71
2024/03/31 03:49:20;;;;;;;20.67;11.90;;;9.50;99.90;;;;;;5012129;28;20030;-71
2024/03/31 03:51:45;;;;;;;21.40;12.27;;;9.50;99.90;;;;;;5013491;28;20117;-72
2024/03/31 03:54:11;;;;;;;19.63;12.55;;;9.40;99.90;;;;;;5012039;28;20037;-71
2024/03/31 03:56:38;;;;;;;21.05;11.82;;;9.50;99.90;;;;;;5013285;28;20064;-71
2024/03/31 03:59:04;;;;;;;21.23;12.88;;;9.50;99.90;;;;;;5013586;28;20050;-71
2024/03/31 04:01:30;;;;;;;19.98;12.45;;;9.50;99.90;;;;;;5013277;28;20054;-71
2024/03/31 04:03:55;;;;;;;20.15;12.05;;;9.50;99.90;;;;;;5012944;28;20058;-71
2024/03/31 04:06:21;;;;;;;19.73;11.93;;;9.50;99.90;;;;;;5011402;28;20061;-74
2024/03/31 04:08:47;;;;;;;19.83;12.32;;;9.50;99.90;;;;;;5014227;28;20087;-72
2024/03/31 04:11:19;;;;;;;21.35;12.90;;;9.50;99.90;;;;;;5012014;28;20037;-73
2024/03/31 04:13:44;;;;;;;19.85;12.43;;;9.60;99.90;;;;;;5011623;28;20057;-72
2024/03/31 04:16:10;;;;;;;20.05;11.55;;;9.60;99.90;;;;;;5012122;28;20030;-72
2024/03/31 04:18:35;;;;;;;19.00;12.32;;;9.60;99.90;;;;;;5011903;28;20026;-74
2024/03/31 04:21:01;;;;;;;19.15;12.00;;;9.70;99.90;;;;;;5012663;28;20026;-73
2024/03/31 04:23:27;;;;;;;19.42;12.05;;;9.60;99.90;;;;;;5012275;28;20092;-72
2024/03/31 04:25:52;;;;;;;19.20;11.88;;;9.60;99.90;;;;;;5010347;28;20048;-72
2024/03/31 04:28:18;;;;;;;18.83;11.93;;;9.60;99.90;;;;;;5011777;28;20026;-73
2024/03/31 04:30:43;;;;;;;18.77;11.50;;;9.60;99.90;;;;;;5011385;28;20031;-72
2024/03/31 04:33:09;;;;;;;20.33;11.50;;;9.60;99.90;;;;;;5010172;28;20064;-73
2024/03/31 04:35:36;;;;;;;18.08;11.10;;;9.70;99.90;;;;;;5011488;28;20022;-73
2024/03/31 04:38:03;;;;;;;17.45;11.20;;;9.60;99.90;;;;;;5011288;28;20033;-73
2024/03/31 04:40:29;;;;;;;18.65;11.77;;;9.60;99.90;;;;;;5011982;28;20025;-73
2024/03/31 04:42:54;;;;;;;19.73;12.10;;;9.60;99.90;;;;;;5012292;28;20065;-72
2024/03/31 04:45:20;;;;;;;18.42;11.35;;;9.50;99.90;;;;;;5011402;28;20036;-73
2024/03/31 04:47:45;;;;;;;21.00;11.98;;;9.50;99.90;;;;;;5011151;28;20046;-72
2024/03/31 04:50:11;;;;;;;19.65;11.32;;;9.60;99.90;;;;;;5011477;28;20097;-72
2024/03/31 04:52:37;;;;;;;18.88;11.70;;;9.60;99.90;;;;;;5011826;28;20038;-73
2024/03/31 04:55:02;;;;;;;18.88;11.40;;;9.50;99.90;;;;;;5010113;28;20430;-73
2024/03/31 04:57:28;;;;;;;18.85;11.50;;;9.60;99.90;;;;;;5013148;28;20035;-72
2024/03/31 04:59:54;;;;;;;18.98;11.77;;;9.60;99.90;;;;;;5014813;28;20373;-72
2024/03/31 05:02:19;;;;;;;19.00;11.32;;;9.60;99.90;;;;;;5013801;28;20053;-72
2024/03/31 05:04:45;;;;;;;18.25;11.85;;;9.60;99.90;;;;;;5013263;28;20384;-72
2024/03/31 05:07:11;;;;;;;19.80;12.25;;;9.60;99.90;;;;;;5015182;28;20046;-72
2024/03/31 05:09:37;;;;;;;18.95;12.48;;;9.60;99.90;;;;;;5014745;28;20051;-72
2024/03/31 05:12:03;;;;;;;20.98;12.88;;;9.60;99.90;;;;;;5013665;28;20032;-72
2024/03/31 05:14:28;;;;;;;21.67;12.73;;;9.50;99.90;;;;;;5014047;28;20045;-72
2024/03/31 05:16:55;;;;;;;24.75;14.00;;;9.50;99.90;;;;;;5015078;28;20389;-72
2024/03/31 05:19:20;;;;;;;24.23;13.50;;;9.50;99.90;;;;;;5015200;28;20129;-71
2024/03/31 05:21:46;;;;;;;20.20;12.25;;;9.50;99.90;;;;;;5015071;28;20118;-71
2024/03/31 05:24:11;;;;;;;23.58;13.52;;;9.50;99.90;;;;;;5014605;28;20613;-72
2024/03/31 05:26:37;;;;;;;19.75;12.82;;;9.50;99.90;;;;;;5014424;28;20046;-71
2024/03/31 05:29:02;;;;;;;19.10;11.40;;;9.50;99.90;;;;;;5014076;28;20030;-73
2024/03/31 05:31:28;;;;;;;20.35;12.25;;;9.50;99.90;;;;;;5014596;28;20044;-72
2024/03/31 05:33:54;;;;;;;22.35;13.00;;;9.50;99.90;;;;;;5014975;28;20471;-72
2024/03/31 05:36:19;;;;;;;21.52;13.43;;;9.60;99.90;;;;;;5013927;28;20026;-72
2024/03/31 05:38:45;;;;;;;23.48;13.07;;;9.60;99.90;;;;;;5014312;28;20102;-72
2024/03/31 05:41:10;;;;;;;22.38;14.10;;;9.60;99.90;;;;;;5014356;28;20373;-72
2024/03/31 05:43:36;;;;;;;26.30;15.52;;;9.60;99.90;;;;;;5013413;28;20164;-73
2024/03/31 05:46:01;;;;;;;25.38;14.77;;;9.60;99.90;;;;;;5015176;28;20046;-73
2024/03/31 05:48:27;;;;;;;25.75;14.80;;;9.60;99.90;;;;;;5012831;28;20041;-73
2024/03/31 05:50:53;;;;;;;21.42;13.60;;;9.60;99.90;;;;;;5013416;28;20064;-73
2024/03/31 05:53:18;;;;;;;24.50;14.63;;;9.60;99.90;;;;;;5014707;28;20041;-72
2024/03/31 05:55:44;;;;;;;26.55;15.65;;;9.60;99.90;;;;;;5012058;28;20026;-72
2024/03/31 05:58:09;;;;;;;26.20;14.77;;;9.60;99.90;;;;;;5012356;28;20026;-73
2024/03/31 06:00:35;;;;;;;25.48;15.30;;;9.60;99.90;;;;;;5013404;28;20467;-73
2024/03/31 06:03:00;;;;;;;24.08;14.48;;;9.60;99.90;;;;;;5015879;28;20082;-73
2024/03/31 06:05:26;;;;;;;30.77;15.27;;;9.60;99.90;;;;;;5012718;28;20081;-72
2024/03/31 06:07:52;;;;;;;25.65;14.52;;;9.60;99.90;;;;;;5013020;28;20073;-72
2024/03/31 06:10:18;;;;;;;26.17;15.13;;;9.60;99.90;;;;;;5011380;28;20033;-72
2024/03/31 06:12:43;;;;;;;24.33;14.75;;;9.60;99.90;;;;;;5012475;28;20022;-72
2024/03/31 06:15:09;;;;;;;22.95;13.45;;;9.60;99.90;;;;;;5014334;28;20025;-73
2024/03/31 06:17:36;;;;;;;25.95;14.38;;;9.60;99.90;;;;;;5013545;28;20026;-72
2024/03/31 06:20:03;;;;;;;21.58;13.48;;;9.60;99.90;;;;;;5011851;28;20057;-74
2024/03/31 06:22:29;;;;;;;23.15;13.85;;;9.60;99.90;;;;;;5011341;28;20026;-73
2024/03/31 06:24:54;;;;;;;22.15;12.77;;;9.60;99.90;;;;;;5012832;28;20049;-73
2024/03/31 06:27:20;;;;;;;22.45;13.55;;;9.60;99.90;;;;;;5012826;28;20026;-73
2024/03/31 06:29:50;;;;;;;22.17;12.77;;;9.60;99.90;;;;;;5011074;28;20022;-73
2024/03/31 06:32:15;;;;;;;23.77;14.00;;;9.60;99.90;;;;;;5012999;28;20019;-73
2024/03/31 06:34:41;;;;;;;23.15;13.73;;;9.60;99.90;;;;;;5011580;28;20030;-73
2024/03/31 06:37:07;;;;;;;25.42;13.63;;;9.60;99.90;;;;;;5013126;28;20113;-73
2024/03/31 06:39:33;;;;;;;22.77;14.05;;;9.60;99.90;;;;;;5012649;28;20062;-74
2024/03/31 06:41:59;;;;;;;23.05;13.90;;;9.60;99.90;;;;;;5013823;28;20030;-72
2024/03/31 06:44:24;;;;;;;23.60;14.00;;;9.60;99.90;;;;;;5012890;28;20104;-73
2024/03/31 06:46:50;;;;;;;23.58;13.55;;;9.60;99.90;;;;;;5013020;28;20034;-73
2024/03/31 06:49:15;;;;;;;23.63;12.95;;;9.60;99.90;;;;;;5012908;28;20487;-73
2024/03/31 06:51:41;;;;;;;24.13;13.05;;;9.60;99.90;;;;;;5011421;28;20026;-73
2024/03/31 06:54:06;;;;;;;22.67;13.38;;;9.60;99.90;;;;;;5011977;28;21266;-73
2024/03/31 06:56:32;;;;;;;19.20;12.93;;;9.50;99.90;;;;;;5023702;28;20033;-73
2024/03/31 06:58:57;;;;;;;21.83;13.43;;;9.60;99.90;;;;;;5012121;28;20090;-73
2024/03/31 07:01:37;;;;;;;22.02;12.55;;;9.60;99.90;;;;;;5011687;28;20112;-74
2024/03/31 07:04:02;;;;;;;20.60;13.07;;;9.60;99.90;;;;;;5011207;28;20046;-73
2024/03/31 07:06:28;;;;;;;19.67;12.05;;;9.60;99.90;;;;;;5012907;28;20482;-72
2024/03/31 07:08:53;;;;;;;18.67;11.98;;;9.60;99.90;;;;;;5011705;28;20038;-73
2024/03/31 07:11:19;;;;;;;21.58;12.07;;;9.60;99.90;;;;;;5010191;28;20037;-74
2024/03/31 07:13:46;;;;;;;20.95;11.52;;;9.60;99.90;;;;;;5013828;28;20041;-72
2024/03/31 07:16:11;;;;;;;22.92;12.02;;;9.60;99.90;;;;;;5016695;28;20030;-73
2024/03/31 07:18:37;;;;;;;21.02;11.55;;;9.60;99.90;;;;;;5025851;28;20026;-73
2024/03/31 07:21:03;;;;;;;20.85;11.63;;;9.70;99.90;;;;;;5007454;28;20037;-74
2024/03/31 07:23:28;;;;;;;20.30;11.40;;;9.70;99.90;;;;;;5019116;28;20037;-73
2024/03/31 07:25:55;;;;;;;19.05;10.82;;;9.70;99.90;;;;;;5014720;28;20037;-73
2024/03/31 07:28:21;;;;;;;18.63;10.77;;;9.70;99.90;;;;;;5008448;28;20042;-74
2024/03/31 07:30:46;;;;;;;19.55;11.02;;;9.70;99.90;;;;;;5012828;28;20033;-73
2024/03/31 07:33:12;;;;;;;19.17;11.45;;;9.70;99.90;;;;;;5012723;28;20034;-74
2024/03/31 07:35:37;;;;;;;20.80;11.00;;;9.70;99.90;;;;;;5013914;28;20030;-73
2024/03/31 07:38:03;;;;;;;17.35;10.88;;;9.60;99.90;;;;;;5010740;28;20023;-74
2024/03/31 07:40:30;;;;;;;19.00;11.20;;;9.70;99.90;;;;;;5012241;28;20056;-73
2024/03/31 07:42:56;;;;;;;20.23;11.23;;;9.60;99.90;;;;;;5011199;28;20544;-74
2024/03/31 07:45:21;;;;;;;19.90;11.77;;;9.60;99.90;;;;;;5013245;28;20029;-73
2024/03/31 07:47:47;;;;;;;17.83;10.57;;;9.70;99.90;;;;;;5010907;28;20038;-73
2024/03/31 07:50:12;;;;;;;18.75;11.00;;;9.70;99.90;;;;;;5013272;28;20032;-74
2024/03/31 07:52:38;;;;;;;17.50;10.85;;;9.70;99.90;;;;;;5009683;28;20034;-73
2024/03/31 07:55:04;;;;;;;18.67;10.25;;;9.70;99.90;;;;;;5011143;28;20031;-74
2024/03/31 07:57:30;;;;;;;22.52;10.88;;;9.70;99.90;;;;;;5012192;28;20090;-74
2024/03/31 07:59:55;;;;;;;16.77;10.35;;;9.70;99.90;;;;;;5010828;28;20057;-73
2024/03/31 08:02:21;;;;;;;18.38;10.50;;;9.70;99.90;;;;;;5011480;28;20413;-74
2024/03/31 08:04:47;;;;;;;18.20;10.90;;;9.70;99.90;;;;;;4990183;28;20053;-73
2024/03/31 08:07:12;;;;;;;16.73;10.13;;;9.80;99.90;;;;;;4992704;28;20062;-74
2024/03/31 08:09:38;;;;;;;17.25;10.30;;;9.80;99.90;;;;;;4990392;28;20030;-74
2024/03/31 08:12:04;;;;;;;17.98;10.40;;;9.80;99.90;;;;;;4994331;28;20026;-74
2024/03/31 08:14:30;;;;;;;18.30;10.98;;;9.80;99.90;;;;;;4991099;28;20094;-73
2024/03/31 08:16:55;;;;;;;19.00;11.07;;;9.80;99.90;;;;;;4991860;28;20035;-73
2024/03/31 08:19:21;;;;;;;18.85;10.98;;;9.80;99.90;;;;;;4991968;28;20030;-74
2024/03/31 08:21:46;;;;;;;19.02;10.50;;;9.80;99.90;;;;;;4991528;28;20030;-74
2024/03/31 08:24:12;;;;;;;21.70;11.55;;;9.80;99.90;;;;;;4992313;28;20100;-74
2024/03/31 08:26:37;;;;;;;24.52;11.70;;;9.80;99.90;;;;;;4992703;28;20058;-73
2024/03/31 08:29:03;;;;;;;18.73;11.57;;;9.80;99.90;;;;;;4991936;28;20037;-74
2024/03/31 08:31:28;;;;;;;23.17;11.85;;;9.80;99.90;;;;;;4993380;28;20027;-73
2024/03/31 08:33:54;;;;;;;20.88;11.82;;;9.80;99.90;;;;;;4995795;28;20037;-74
2024/03/31 08:36:20;;;;;;;20.20;11.60;;;9.90;99.90;;;;;;4993868;28;20034;-74
2024/03/31 08:38:45;;;;;;;18.88;11.80;;;9.90;99.90;;;;;;4994810;28;20086;-74
2024/03/31 08:41:16;;;;;;;20.85;11.63;;;9.90;99.90;;;;;;4995309;28;20026;-74
2024/03/31 08:43:45;;;;;;;22.30;12.13;;;9.90;99.90;;;;;;4995660;28;20071;-73
2024/03/31 08:46:11;;;;;;;23.20;12.77;;;9.90;99.90;;;;;;4995473;28;20027;-74
2024/03/31 08:48:38;;;;;;;19.45;11.82;;;9.90;99.90;;;;;;4995746;28;20022;-73
2024/03/31 08:51:05;;;;;;;20.67;11.88;;;9.90;99.90;;;;;;4994634;28;20037;-73
2024/03/31 08:53:32;;;;;;;22.48;13.07;;;9.90;99.90;;;;;;4996022;28;20038;-74
2024/03/31 08:55:58;;;;;;;20.83;12.23;;;9.90;99.90;;;;;;4994948;28;20034;-73
2024/03/31 08:58:23;;;;;;;23.08;12.68;;;9.80;99.90;;;;;;4991658;28;20029;-74
2024/03/31 09:00:50;;;;;;;20.10;11.98;;;9.80;99.90;;;;;;4991537;28;20392;-75
2024/03/31 09:03:17;;;;;;;20.92;12.20;;;9.80;99.90;;;;;;4999518;28;20058;-73
2024/03/31 09:05:44;;;;;;;21.92;12.15;;;9.80;99.90;;;;;;5017969;28;20102;-75
2024/03/31 09:08:10;;;;;;;19.52;12.00;;;9.80;99.90;;;;;;5013136;28;20380;-74
2024/03/31 09:10:37;;;;;;;19.65;12.10;;;9.90;99.90;;;;;;5011045;28;20126;-76
2024/03/31 09:13:06;;;;;;;21.00;11.77;;;9.90;99.90;;;;;;5014642;28;20033;-74
2024/03/31 09:15:34;;;;;;;19.17;11.50;;;10.00;99.90;;;;;;5016272;28;20053;-75
2024/03/31 09:17:59;;;;;;;19.92;12.02;;;10.00;99.90;;;;;;5012829;28;20028;-75
2024/03/31 09:20:25;;;;;;;19.55;11.68;;;9.90;99.90;;;;;;5012593;28;20093;-76
2024/03/31 09:22:51;;;;;;;19.63;11.82;;;9.90;99.90;;;;;;5014708;28;20117;-76
2024/03/31 09:25:18;;;;;;;19.65;11.15;;;9.90;99.90;;;;;;5011954;28;20037;-75
2024/03/31 09:27:43;;;;;;;18.65;11.30;;;10.00;99.90;;;;;;5014434;28;20056;-74
2024/03/31 09:30:09;;;;;;;19.83;11.75;;;10.00;99.90;;;;;;5014524;28;20050;-75
2024/03/31 09:32:37;;;;;;;20.40;11.60;;;10.00;99.90;;;;;;5012360;28;20361;-76
2024/03/31 09:35:04;;;;;;;24.95;11.60;;;10.10;99.90;;;;;;5013997;28;20060;-75
2024/03/31 09:37:29;;;;;;;21.73;12.02;;;10.10;99.90;;;;;;5013890;28;20021;-75
2024/03/31 09:39:55;;;;;;;23.23;12.30;;;10.20;99.90;;;;;;5013980;28;20045;-74
2024/03/31 09:42:20;;;;;;;20.83;13.45;;;10.20;99.90;;;;;;5013247;28;20090;-75
2024/03/31 09:44:46;;;;;;;21.83;13.10;;;10.30;99.90;;;;;;5013277;28;20029;-75
2024/03/31 09:47:22;;;;;;;23.20;13.40;;;10.30;99.90;;;;;;5011287;28;20026;-73
2024/03/31 09:50:08;;;;;;;22.20;13.10;;;10.40;99.90;;;;;;5013856;28;20031;-76
2024/03/31 09:52:34;;;;;;;24.58;12.77;;;10.40;99.90;;;;;;5014073;28;20018;-75
2024/03/31 09:55:10;;;;;;;22.25;13.23;;;10.50;99.90;;;;;;5014135;28;20057;-75
2024/03/31 09:57:43;;;;;;;23.70;13.20;;;10.50;99.90;;;;;;5013432;28;20448;-74
2024/03/31 10:00:14;;;;;;;20.77;12.57;;;10.60;99.90;;;;;;5012976;28;20034;-76
2024/03/31 10:02:57;;;;;;;20.20;12.25;;;10.50;99.90;;;;;;5013227;28;20026;-75
2024/03/31 10:05:34;;;;;;;24.17;12.35;;;10.50;99.90;;;;;;5013808;28;20034;-75
2024/03/31 10:08:01;;;;;;;20.80;12.02;;;10.60;99.90;;;;;;5013505;28;20045;-74
2024/03/31 10:10:28;;;;;;;20.80;12.70;;;10.60;99.90;;;;;;5009485;28;20105;-74
2024/03/31 10:12:58;;;;;;;23.15;13.50;;;10.70;99.90;;;;;;5011941;28;20033;-75
2024/03/31 10:15:29;;;;;;;23.05;12.98;;;10.80;99.90;;;;;;5010442;28;20029;-73
2024/03/31 10:17:57;;;;;;;21.45;12.13;;;10.90;99.90;;;;;;5010543;28;20041;-74
2024/03/31 10:20:25;;;;;;;20.40;12.32;;;11.00;99.90;;;;;;5011141;28;20466;-73
2024/03/31 10:22:51;;;;;;;21.08;12.15;;;11.00;99.90;;;;;;5010682;28;20111;-73
2024/03/31 10:25:18;;;;;;;20.45;11.43;;;11.00;99.90;;;;;;5011389;28;20029;-74
2024/03/31 10:27:46;;;;;;;23.80;13.18;;;11.00;99.90;;;;;;5012180;28;20046;-74
2024/03/31 10:30:12;;;;;;;21.80;13.18;;;11.00;99.90;;;;;;5011106;28;20037;-74
2024/03/31 10:32:38;;;;;;;20.75;12.65;;;11.10;99.90;;;;;;5011295;28;20034;-73
2024/03/31 10:35:05;;;;;;;21.48;12.30;;;11.10;99.90;;;;;;5012272;28;20382;-73
2024/03/31 10:37:33;;;;;;;16.73;10.98;;;11.10;99.90;;;;;;5012231;28;20076;-74
2024/03/31 10:40:01;;;;;;;20.27;11.25;;;11.10;99.90;;;;;;5012747;28;20087;-74
2024/03/31 10:42:27;;;;;;;20.13;10.40;;;11.20;99.90;;;;;;5010334;28;20053;-74
2024/03/31 10:44:53;;;;;;;17.00;10.45;;;11.10;99.90;;;;;;5011754;28;20078;-73
2024/03/31 10:47:20;;;;;;;15.50;9.68;;;11.10;99.90;;;;;;5012627;28;20080;-72
2024/03/31 10:49:46;;;;;;;15.38;10.57;;;11.10;99.90;;;;;;5010857;28;20098;-73
2024/03/31 10:52:14;;;;;;;17.63;9.63;;;11.00;99.90;;;;;;5011695;28;20901;-73
2024/03/31 10:54:40;;;;;;;15.38;9.55;;;11.00;99.90;;;;;;5010994;28;20077;-74
2024/03/31 10:57:13;;;;;;;17.88;10.60;;;11.00;99.90;;;;;;5010940;28;20434;-75
2024/03/31 10:59:40;;;;;;;13.80;9.40;;;11.00;99.90;;;;;;5012084;28;20031;-75
2024/03/31 11:02:22;;;;;;;15.00;9.30;;;11.10;99.90;;;;;;5013098;28;20022;-76
2024/03/31 11:05:06;;;;;;;14.18;9.80;;;11.10;99.90;;;;;;5012544;28;20042;-74
2024/03/31 11:07:36;;;;;;;15.50;9.05;;;11.20;99.90;;;;;;5013088;28;20030;-75
2024/03/31 11:10:05;;;;;;;12.35;8.82;;;11.30;99.90;;;;;;5013402;28;20033;-73
2024/03/31 11:12:31;;;;;;;19.40;11.80;;;11.40;99.90;;;;;;5010219;28;20089;-74
2024/03/31 11:14:57;;;;;;;19.55;11.20;;;11.40;99.90;;;;;;5010212;28;20064;-75
2024/03/31 11:17:24;;;;;;;16.42;9.55;;;11.40;99.90;;;;;;5010054;28;20415;-75
2024/03/31 11:19:53;;;;;;;16.00;9.88;;;11.60;99.90;;;;;;5011250;28;20472;-74
2024/03/31 11:22:22;;;;;;;15.90;10.27;;;11.60;99.90;;;;;;5010435;28;20026;-75
2024/03/31 11:24:48;;;;;;;16.65;10.20;;;11.70;99.90;;;;;;5009657;28;20038;-73
2024/03/31 11:27:15;;;;;;;17.60;11.25;;;11.80;99.90;;;;;;5011200;28;20052;-74
2024/03/31 11:29:42;;;;;;;16.40;10.77;;;11.90;99.90;;;;;;5011456;28;20097;-73
2024/03/31 11:32:08;;;;;;;17.58;11.10;;;11.90;99.90;;;;;;5011288;28;20037;-74
2024/03/31 11:34:35;;;;;;;16.33;10.30;;;12.00;99.90;;;;;;5011341;28;20030;-74
2024/03/31 11:37:05;;;;;;;14.32;9.98;;;12.10;99.90;;;;;;5008547;28;20075;-75
2024/03/31 11:39:36;;;;;;;17.45;10.73;;;12.10;99.90;;;;;;5012066;28;20085;-74
2024/03/31 11:42:02;;;;;;;54.33;25.98;;;12.10;99.90;;;;;;5007432;28;20044;-75
2024/03/31 11:44:31;;;;;;;55.92;23.40;;;12.20;99.90;;;;;;5013019;28;20559;-74
2024/03/31 11:46:57;;;;;;;21.67;13.95;;;12.30;99.90;;;;;;5011511;28;20181;-73
2024/03/31 11:49:23;;;;;;;15.63;10.88;;;12.40;99.90;;;;;;5013273;28;20027;-74
2024/03/31 11:51:49;;;;;;;15.63;10.52;;;12.50;99.90;;;;;;5019151;28;20037;-74
2024/03/31 11:54:14;;;;;;;14.30;9.98;;;12.70;99.90;;;;;;5017728;28;20027;-74
2024/03/31 11:56:41;;;;;;;14.93;9.30;;;12.80;99.90;;;;;;5015259;28;20038;-76
2024/03/31 11:59:20;;;;;;;15.20;9.60;;;13.00;99.90;;;;;;5019278;28;20034;-75
2024/03/31 12:01:46;;;;;;;13.45;9.18;;;13.20;99.90;;;;;;5012641;28;20034;-73
2024/03/31 12:04:18;;;;;;;12.13;8.75;;;13.30;99.90;;;;;;5007818;28;20458;-74
2024/03/31 12:06:46;;;;;;;12.52;8.45;;;13.30;99.90;;;;;;5017313;28;20043;-74
2024/03/31 12:09:12;;;;;;;11.02;8.40;;;13.60;99.90;;;;;;5023276;28;20116;-75
2024/03/31 12:11:38;;;;;;;12.75;9.00;;;14.20;99.90;;;;;;5026606;28;20077;-73
2024/03/31 12:14:05;;;;;;;10.52;8.30;;;14.70;99.90;;;;;;5025592;28;20482;-74
2024/03/31 12:16:31;;;;;;;11.65;8.40;;;15.00;99.90;;;;;;5018665;28;20026;-74
2024/03/31 12:19:00;;;;;;;9.50;7.28;;;15.40;99.90;;;;;;5022641;28;20147;-74
2024/03/31 12:21:27;;;;;;;9.48;7.00;;;15.80;99.90;;;;;;5020650;28;20029;-72
2024/03/31 12:23:54;;;;;;;8.73;7.15;;;16.20;99.90;;;;;;5020215;28;20130;-73
2024/03/31 12:26:21;;;;;;;9.85;7.13;;;16.50;99.90;;;;;;5024568;28;20052;-73